sensor_id;sensor_type;location;lat;lon;timestamp;pressure;altitude;pressure_sealevel;temperature;humidity
19576;BME280;41589;51.196;7.074;2022-11-20T00:04:09;98572.25;;;4.28;100.00
19576;BME280;41589;51.196;7.074;2022-11-20T00:09:10;98561.97;;;4.25;100.00
19576;BME280;41589;51.196;7.074;2022-11-20T00:14:11;98562.38;;;4.24;100.00
19576;BME280;41589;51.196;7.074;2022-11-20T00:19:12;98566.25;;;4.30;100.00
19576;BME280;41589;51.196;7.074;2022-11-20T00:24:12;98561.63;;;4.40;100.00
19576;BME280;41589;51.196;7.074;2022-11-20T00:29:13;98552.56;;;4.35;100.00
19576;BME280;41589;51.196;7.074;2022-11-20T00:34:14;98558.13;;;4.35;100.00
19576;BME280;41589;51.196;7.074;2022-11-20T00:39:14;98558.75;;;4.43;100.00
19576;BME280;41589;51.196;7.074;2022-11-20T00:44:15;98548.16;;;4.38;100.00
19576;BME280;41589;51.196;7.074;2022-11-20T00:49:16;98548.94;;;4.39;100.00
19576;BME280;41589;51.196;7.074;2022-11-20T00:54:19;98551.97;;;4.28;100.00
19576;BME280;41589;51.196;7.074;2022-11-20T00:59:20;98555.78;;;4.34;100.00
19576;BME280;41589;51.196;7.074;2022-11-20T01:04:20;98557.03;;;4.49;100.00
19576;BME280;41589;51.196;7.074;2022-11-20T01:09:21;98560.50;;;4.53;100.00
19576;BME280;41589;51.196;7.074;2022-11-20T01:14:22;98553.47;;;4.49;100.00
19576;BME280;41589;51.196;7.074;2022-11-20T01:19:23;98548.84;;;4.58;100.00
19576;BME280;41589;51.196;7.074;2022-11-20T01:24:23;98546.06;;;4.58;100.00
19576;BME280;41589;51.196;7.074;2022-11-20T01:29:24;98542.28;;;4.65;100.00
19576;BME280;41589;51.196;7.074;2022-11-20T01:34:25;98538.28;;;4.66;100.00
19576;BME280;41589;51.196;7.074;2022-11-20T01:39:26;98530.00;;;4.62;100.00
19576;BME280;41589;51.196;7.074;2022-11-20T01:44:44;98525.56;;;4.65;100.00
19576;BME280;41589;51.196;7.074;2022-11-20T01:49:49;98533.91;;;4.65;100.00
19576;BME280;41589;51.196;7.074;2022-11-20T01:55:16;98535.25;;;4.44;100.00
19576;BME280;41589;51.196;7.074;2022-11-20T02:00:19;98533.06;;;4.52;100.00
19576;BME280;41589;51.196;7.074;2022-11-20T02:05:25;98529.06;;;4.53;100.00
19576;BME280;41589;51.196;7.074;2022-11-20T02:10:28;98526.88;;;4.44;100.00
19576;BME280;41589;51.196;7.074;2022-11-20T02:15:29;98535.59;;;4.46;100.00
19576;BME280;41589;51.196;7.074;2022-11-20T02:20:29;98530.03;;;4.46;100.00
19576;BME280;41589;51.196;7.074;2022-11-20T02:25:30;98522.19;;;4.41;100.00
19576;BME280;41589;51.196;7.074;2022-11-20T02:30:33;98511.44;;;4.56;100.00
19576;BME280;41589;51.196;7.074;2022-11-20T02:40:34;98522.00;;;4.64;100.00
19576;BME280;41589;51.196;7.074;2022-11-20T02:45:35;98507.09;;;4.71;100.00
19576;BME280;41589;51.196;7.074;2022-11-20T02:50:38;98507.59;;;4.66;100.00
19576;BME280;41589;51.196;7.074;2022-11-20T02:55:42;98503.88;;;4.56;100.00
19576;BME280;41589;51.196;7.074;2022-11-20T03:00:46;98487.75;;;4.64;100.00
19576;BME280;41589;51.196;7.074;2022-11-20T03:05:49;98476.53;;;4.51;100.00
19576;BME280;41589;51.196;7.074;2022-11-20T03:10:49;98471.34;;;4.37;100.00
19576;BME280;41589;51.196;7.074;2022-11-20T03:15:50;98469.94;;;4.13;100.00
19576;BME280;41589;51.196;7.074;2022-11-20T03:20:57;98475.25;;;4.07;100.00
19576;BME280;41589;51.196;7.074;2022-11-20T03:26:29;98468.91;;;4.06;100.00
19576;BME280;41589;51.196;7.074;2022-11-20T03:31:34;98461.13;;;4.14;100.00
19576;BME280;41589;51.196;7.074;2022-11-20T03:36:38;98475.63;;;4.25;100.00
19576;BME280;41589;51.196;7.074;2022-11-20T03:41:40;98465.31;;;4.39;100.00
19576;BME280;41589;51.196;7.074;2022-11-20T03:46:41;98467.13;;;4.45;100.00
19576;BME280;41589;51.196;7.074;2022-11-20T03:51:41;98460.09;;;4.41;100.00
19576;BME280;41589;51.196;7.074;2022-11-20T03:56:42;98468.34;;;4.44;100.00
19576;BME280;41589;51.196;7.074;2022-11-20T04:01:42;98474.28;;;4.46;100.00
19576;BME280;41589;51.196;7.074;2022-11-20T04:06:43;98476.47;;;4.39;100.00
19576;BME280;41589;51.196;7.074;2022-11-20T04:11:43;98471.59;;;4.43;100.00
19576;BME280;41589;51.196;7.074;2022-11-20T04:16:44;98474.13;;;4.37;100.00
19576;BME280;41589;51.196;7.074;2022-11-20T04:21:45;98468.72;;;4.30;100.00
19576;BME280;41589;51.196;7.074;2022-11-20T04:26:45;98467.06;;;4.32;100.00
19576;BME280;41589;51.196;7.074;2022-11-20T04:31:46;98463.66;;;4.41;100.00
19576;BME280;41589;51.196;7.074;2022-11-20T04:36:46;98467.66;;;4.40;100.00
19576;BME280;41589;51.196;7.074;2022-11-20T04:41:47;98478.13;;;4.36;100.00
19576;BME280;41589;51.196;7.074;2022-11-20T04:46:47;98472.47;;;4.40;100.00
19576;BME280;41589;51.196;7.074;2022-11-20T04:51:48;98477.59;;;4.41;100.00
19576;BME280;41589;51.196;7.074;2022-11-20T04:56:48;98481.09;;;4.29;100.00
19576;BME280;41589;51.196;7.074;2022-11-20T05:01:49;98477.69;;;4.38;100.00
19576;BME280;41589;51.196;7.074;2022-11-20T05:06:50;98470.63;;;4.33;100.00
19576;BME280;41589;51.196;7.074;2022-11-20T05:11:50;98472.56;;;4.36;100.00
19576;BME280;41589;51.196;7.074;2022-11-20T05:16:51;98480.81;;;4.40;100.00
19576;BME280;41589;51.196;7.074;2022-11-20T05:21:51;98477.88;;;4.47;100.00
19576;BME280;41589;51.196;7.074;2022-11-20T05:26:51;98474.63;;;4.48;100.00
19576;BME280;41589;51.196;7.074;2022-11-20T05:31:52;98479.59;;;4.57;100.00
19576;BME280;41589;51.196;7.074;2022-11-20T05:36:52;98472.97;;;4.67;100.00
19576;BME280;41589;51.196;7.074;2022-11-20T05:41:52;98478.78;;;4.73;100.00
19576;BME280;41589;51.196;7.074;2022-11-20T05:47:13;98473.66;;;4.55;100.00
19576;BME280;41589;51.196;7.074;2022-11-20T05:52:13;98464.16;;;4.69;100.00
19576;BME280;41589;51.196;7.074;2022-11-20T05:57:14;98468.63;;;4.50;100.00
19576;BME280;41589;51.196;7.074;2022-11-20T06:02:14;98472.47;;;4.40;100.00
19576;BME280;41589;51.196;7.074;2022-11-20T06:07:15;98476.72;;;4.44;100.00
19576;BME280;41589;51.196;7.074;2022-11-20T06:12:15;98473.75;;;4.51;100.00
19576;BME280;41589;51.196;7.074;2022-11-20T06:17:17;98462.59;;;4.51;100.00
19576;BME280;41589;51.196;7.074;2022-11-20T06:22:17;98472.78;;;4.58;100.00
19576;BME280;41589;51.196;7.074;2022-11-20T06:27:18;98469.22;;;4.57;100.00
19576;BME280;41589;51.196;7.074;2022-11-20T06:32:18;98467.22;;;4.58;100.00
19576;BME280;41589;51.196;7.074;2022-11-20T06:37:18;98463.56;;;4.61;100.00
19576;BME280;41589;51.196;7.074;2022-11-20T06:42:18;98466.34;;;4.61;100.00
19576;BME280;41589;51.196;7.074;2022-11-20T06:47:19;98477.16;;;4.59;100.00
19576;BME280;41589;51.196;7.074;2022-11-20T06:52:19;98477.16;;;4.59;100.00
19576;BME280;41589;51.196;7.074;2022-11-20T06:57:19;98479.22;;;4.55;100.00
19576;BME280;41589;51.196;7.074;2022-11-20T07:02:20;98484.88;;;4.68;100.00
19576;BME280;41589;51.196;7.074;2022-11-20T07:07:20;98487.50;;;4.58;100.00
19576;BME280;41589;51.196;7.074;2022-11-20T07:12:21;98479.94;;;4.59;100.00
19576;BME280;41589;51.196;7.074;2022-11-20T07:17:21;98491.53;;;4.57;100.00
19576;BME280;41589;51.196;7.074;2022-11-20T07:22:21;98499.00;;;4.44;100.00
19576;BME280;41589;51.196;7.074;2022-11-20T07:27:22;98497.47;;;4.27;100.00
19576;BME280;41589;51.196;7.074;2022-11-20T07:32:22;98496.16;;;4.31;100.00
19576;BME280;41589;51.196;7.074;2022-11-20T07:37:23;98499.53;;;4.39;100.00
19576;BME280;41589;51.196;7.074;2022-11-20T07:42:23;98501.91;;;4.41;100.00
19576;BME280;41589;51.196;7.074;2022-11-20T07:47:25;98497.53;;;4.40;100.00
19576;BME280;41589;51.196;7.074;2022-11-20T07:52:25;98499.88;;;4.41;100.00
19576;BME280;41589;51.196;7.074;2022-11-20T07:57:25;98487.78;;;4.48;100.00
19576;BME280;41589;51.196;7.074;2022-11-20T08:02:26;98481.66;;;4.53;100.00
19576;BME280;41589;51.196;7.074;2022-11-20T08:07:26;98496.06;;;4.51;100.00
19576;BME280;41589;51.196;7.074;2022-11-20T08:12:26;98494.31;;;4.57;100.00
19576;BME280;41589;51.196;7.074;2022-11-20T08:17:45;98494.09;;;4.64;100.00
19576;BME280;41589;51.196;7.074;2022-11-20T08:22:45;98494.22;;;4.61;100.00
19576;BME280;41589;51.196;7.074;2022-11-20T08:27:46;98494.88;;;4.65;100.00
19576;BME280;41589;51.196;7.074;2022-11-20T08:32:46;98493.31;;;4.80;100.00
19576;BME280;41589;51.196;7.074;2022-11-20T08:37:47;98501.84;;;4.89;100.00
19576;BME280;41589;51.196;7.074;2022-11-20T08:42:48;98496.69;;;4.88;100.00
19576;BME280;41589;51.196;7.074;2022-11-20T08:47:49;98509.84;;;4.87;100.00
19576;BME280;41589;51.196;7.074;2022-11-20T08:52:49;98496.81;;;4.97;100.00
19576;BME280;41589;51.196;7.074;2022-11-20T08:57:49;98488.31;;;5.17;100.00
19576;BME280;41589;51.196;7.074;2022-11-20T09:02:50;98491.78;;;5.21;100.00
19576;BME280;41589;51.196;7.074;2022-11-20T09:07:50;98484.25;;;5.34;100.00
19576;BME280;41589;51.196;7.074;2022-11-20T09:12:51;98498.31;;;5.31;100.00
19576;BME280;41589;51.196;7.074;2022-11-20T09:18:00;98495.38;;;5.21;100.00
19576;BME280;41589;51.196;7.074;2022-11-20T09:23:01;98496.16;;;5.22;100.00
19576;BME280;41589;51.196;7.074;2022-11-20T09:28:01;98478.78;;;5.43;100.00
19576;BME280;41589;51.196;7.074;2022-11-20T09:33:04;98476.59;;;5.64;100.00
19576;BME280;41589;51.196;7.074;2022-11-20T09:38:07;98468.88;;;5.68;100.00
19576;BME280;41589;51.196;7.074;2022-11-20T09:43:17;98460.28;;;5.75;100.00
19576;BME280;41589;51.196;7.074;2022-11-20T09:48:29;98470.22;;;5.76;100.00
19576;BME280;41589;51.196;7.074;2022-11-20T09:53:54;98468.66;;;5.62;100.00
19576;BME280;41589;51.196;7.074;2022-11-20T09:58:59;98467.56;;;5.72;100.00
19576;BME280;41589;51.196;7.074;2022-11-20T10:04:19;98462.75;;;5.73;100.00
19576;BME280;41589;51.196;7.074;2022-11-20T10:09:30;98457.03;;;5.76;100.00
19576;BME280;41589;51.196;7.074;2022-11-20T10:25:18;98441.63;;;5.97;100.00
19576;BME280;41589;51.196;7.074;2022-11-20T10:30:19;98437.16;;;6.00;100.00
19576;BME280;41589;51.196;7.074;2022-11-20T10:35:26;98422.47;;;6.34;100.00
19576;BME280;41589;51.196;7.074;2022-11-20T10:40:43;98419.75;;;6.43;100.00
19576;BME280;41589;51.196;7.074;2022-11-20T10:45:52;98414.53;;;6.45;100.00
19576;BME280;41589;51.196;7.074;2022-11-20T10:56:50;98405.41;;;6.06;100.00
19576;BME280;41589;51.196;7.074;2022-11-20T11:01:51;98406.06;;;6.23;100.00
19576;BME280;41589;51.196;7.074;2022-11-20T11:06:55;98405.28;;;6.35;100.00
19576;BME280;41589;51.196;7.074;2022-11-20T11:11:59;98402.81;;;6.25;99.50
19576;BME280;41589;51.196;7.074;2022-11-20T11:16:59;98386.84;;;6.00;97.68
19576;BME280;41589;51.196;7.074;2022-11-20T11:22:05;98375.53;;;6.16;100.00
19576;BME280;41589;51.196;7.074;2022-11-20T11:27:13;98355.38;;;6.34;100.00
19576;BME280;41589;51.196;7.074;2022-11-20T11:32:21;98352.47;;;6.37;100.00
19576;BME280;41589;51.196;7.074;2022-11-20T11:37:24;98353.06;;;6.54;100.00
19576;BME280;41589;51.196;7.074;2022-11-20T11:42:28;98358.94;;;6.47;100.00
19576;BME280;41589;51.196;7.074;2022-11-20T11:47:32;98335.25;;;6.39;100.00
19576;BME280;41589;51.196;7.074;2022-11-20T11:52:50;98335.47;;;6.32;100.00
19576;BME280;41589;51.196;7.074;2022-11-20T11:58:08;98312.59;;;6.24;100.00
19576;BME280;41589;51.196;7.074;2022-11-20T12:03:19;98312.31;;;6.31;100.00
19576;BME280;41589;51.196;7.074;2022-11-20T12:08:44;98304.25;;;6.46;100.00
19576;BME280;41589;51.196;7.074;2022-11-20T12:13:59;98301.00;;;6.48;100.00
19576;BME280;41589;51.196;7.074;2022-11-20T12:19:11;98310.63;;;6.47;100.00
19576;BME280;41589;51.196;7.074;2022-11-20T12:24:39;98291.91;;;6.34;100.00
19576;BME280;41589;51.196;7.074;2022-11-20T12:30:04;98291.19;;;6.30;100.00
19576;BME280;41589;51.196;7.074;2022-11-20T12:46:47;98268.38;;;6.45;100.00
19576;BME280;41589;51.196;7.074;2022-11-20T12:57:56;98263.06;;;6.68;100.00
19576;BME280;41589;51.196;7.074;2022-11-20T13:13:43;98219.88;;;6.70;100.00
19576;BME280;41589;51.196;7.074;2022-11-20T13:18:47;98211.34;;;6.73;100.00
19576;BME280;41589;51.196;7.074;2022-11-20T13:23:48;98214.91;;;6.74;100.00
19576;BME280;41589;51.196;7.074;2022-11-20T13:29:21;98194.41;;;6.67;100.00
19576;BME280;41589;51.196;7.074;2022-11-20T13:34:25;98192.50;;;6.64;100.00
19576;BME280;41589;51.196;7.074;2022-11-20T13:39:29;98186.22;;;6.51;100.00
19576;BME280;41589;51.196;7.074;2022-11-20T13:44:38;98169.91;;;6.50;100.00
19576;BME280;41589;51.196;7.074;2022-11-20T13:49:40;98158.50;;;6.35;100.00
19576;BME280;41589;51.196;7.074;2022-11-20T13:55:06;98163.63;;;6.36;100.00
19576;BME280;41589;51.196;7.074;2022-11-20T14:05:22;98135.13;;;6.29;100.00
19576;BME280;41589;51.196;7.074;2022-11-20T14:10:27;98133.53;;;6.41;100.00
19576;BME280;41589;51.196;7.074;2022-11-20T14:15:32;98114.72;;;6.41;100.00
19576;BME280;41589;51.196;7.074;2022-11-20T14:20:37;98120.97;;;6.45;100.00
19576;BME280;41589;51.196;7.074;2022-11-20T14:25:42;98115.19;;;6.39;100.00
19576;BME280;41589;51.196;7.074;2022-11-20T14:30:47;98107.00;;;6.45;100.00
19576;BME280;41589;51.196;7.074;2022-11-20T14:35:55;98093.75;;;6.36;100.00
19576;BME280;41589;51.196;7.074;2022-11-20T14:41:14;98076.13;;;6.27;100.00
19576;BME280;41589;51.196;7.074;2022-11-20T14:46:23;98073.16;;;6.21;100.00
19576;BME280;41589;51.196;7.074;2022-11-20T14:51:37;98063.41;;;6.26;100.00
19576;BME280;41589;51.196;7.074;2022-11-20T14:56:58;98060.59;;;6.26;100.00
19576;BME280;41589;51.196;7.074;2022-11-20T15:02:06;98052.06;;;6.29;100.00
19576;BME280;41589;51.196;7.074;2022-11-20T15:07:08;98049.34;;;6.38;100.00
19576;BME280;41589;51.196;7.074;2022-11-20T15:12:17;98041.34;;;6.28;100.00
19576;BME280;41589;51.196;7.074;2022-11-20T15:17:18;98039.97;;;6.32;100.00
19576;BME280;41589;51.196;7.074;2022-11-20T15:22:19;98025.81;;;6.27;100.00
19576;BME280;41589;51.196;7.074;2022-11-20T15:27:19;98016.81;;;6.32;100.00
19576;BME280;41589;51.196;7.074;2022-11-20T15:32:20;98016.97;;;6.28;100.00
19576;BME280;41589;51.196;7.074;2022-11-20T15:37:23;98009.91;;;6.36;100.00
19576;BME280;41589;51.196;7.074;2022-11-20T15:42:23;97995.47;;;6.38;100.00
19576;BME280;41589;51.196;7.074;2022-11-20T15:47:35;97991.91;;;6.47;100.00
19576;BME280;41589;51.196;7.074;2022-11-20T15:52:36;97980.13;;;6.61;100.00
19576;BME280;41589;51.196;7.074;2022-11-20T15:57:36;97982.94;;;6.61;100.00
19576;BME280;41589;51.196;7.074;2022-11-20T16:02:37;97982.00;;;6.64;100.00
19576;BME280;41589;51.196;7.074;2022-11-20T16:07:38;97972.53;;;6.71;100.00
19576;BME280;41589;51.196;7.074;2022-11-20T16:12:39;97976.59;;;6.79;100.00
19576;BME280;41589;51.196;7.074;2022-11-20T16:17:58;97968.19;;;6.79;100.00
19576;BME280;41589;51.196;7.074;2022-11-20T16:22:58;97965.88;;;6.86;100.00
19576;BME280;41589;51.196;7.074;2022-11-20T16:27:59;97957.16;;;6.93;100.00
19576;BME280;41589;51.196;7.074;2022-11-20T16:33:03;97944.72;;;6.94;100.00
19576;BME280;41589;51.196;7.074;2022-11-20T16:38:07;97937.75;;;6.90;100.00
19576;BME280;41589;51.196;7.074;2022-11-20T16:43:13;97932.13;;;6.90;100.00
19576;BME280;41589;51.196;7.074;2022-11-20T16:48:16;97915.66;;;6.92;100.00
19576;BME280;41589;51.196;7.074;2022-11-20T16:53:21;97902.91;;;6.91;100.00
19576;BME280;41589;51.196;7.074;2022-11-20T16:58:22;97901.19;;;6.93;100.00
19576;BME280;41589;51.196;7.074;2022-11-20T17:03:26;97886.75;;;6.95;100.00
19576;BME280;41589;51.196;7.074;2022-11-20T17:08:27;97876.50;;;6.83;100.00
19576;BME280;41589;51.196;7.074;2022-11-20T17:13:29;97886.59;;;6.62;100.00
19576;BME280;41589;51.196;7.074;2022-11-20T17:18:31;97865.00;;;6.53;100.00
19576;BME280;41589;51.196;7.074;2022-11-20T17:23:36;97863.31;;;6.65;100.00
19576;BME280;41589;51.196;7.074;2022-11-20T17:28:37;97852.44;;;6.67;100.00
19576;BME280;41589;51.196;7.074;2022-11-20T17:33:40;97835.19;;;6.68;100.00
19576;BME280;41589;51.196;7.074;2022-11-20T17:38:41;97828.66;;;6.62;100.00
19576;BME280;41589;51.196;7.074;2022-11-20T17:43:42;97807.53;;;6.61;100.00
19576;BME280;41589;51.196;7.074;2022-11-20T17:48:47;97798.56;;;6.57;100.00
19576;BME280;41589;51.196;7.074;2022-11-20T17:53:51;97782.38;;;6.61;100.00
19576;BME280;41589;51.196;7.074;2022-11-20T17:58:52;97773.69;;;6.59;100.00
19576;BME280;41589;51.196;7.074;2022-11-20T18:03:57;97754.72;;;6.63;100.00
19576;BME280;41589;51.196;7.074;2022-11-20T18:09:00;97755.50;;;6.64;100.00
19576;BME280;41589;51.196;7.074;2022-11-20T18:14:04;97733.59;;;6.62;100.00
19576;BME280;41589;51.196;7.074;2022-11-20T18:19:28;97728.94;;;6.68;100.00
19576;BME280;41589;51.196;7.074;2022-11-20T18:24:31;97727.50;;;6.73;100.00
19576;BME280;41589;51.196;7.074;2022-11-20T18:29:32;97724.72;;;6.73;100.00
19576;BME280;41589;51.196;7.074;2022-11-20T18:34:33;97706.25;;;6.76;100.00
19576;BME280;41589;51.196;7.074;2022-11-20T18:39:45;97704.34;;;6.82;100.00
19576;BME280;41589;51.196;7.074;2022-11-20T18:44:50;97695.91;;;6.91;100.00
19576;BME280;41589;51.196;7.074;2022-11-20T18:49:54;97705.38;;;6.93;100.00
19576;BME280;41589;51.196;7.074;2022-11-20T18:54:56;97698.34;;;7.07;100.00
19576;BME280;41589;51.196;7.074;2022-11-20T19:00:01;97678.63;;;7.02;100.00
19576;BME280;41589;51.196;7.074;2022-11-20T19:05:08;97676.41;;;7.06;100.00
19576;BME280;41589;51.196;7.074;2022-11-20T19:10:11;97663.00;;;7.19;100.00
19576;BME280;41589;51.196;7.074;2022-11-20T19:15:12;97675.72;;;7.20;100.00
19576;BME280;41589;51.196;7.074;2022-11-20T19:20:14;97660.00;;;7.22;100.00
19576;BME280;41589;51.196;7.074;2022-11-20T19:25:18;97647.22;;;7.31;100.00
19576;BME280;41589;51.196;7.074;2022-11-20T19:30:24;97650.72;;;7.40;100.00
19576;BME280;41589;51.196;7.074;2022-11-20T19:35:25;97636.81;;;7.46;100.00
19576;BME280;41589;51.196;7.074;2022-11-20T19:40:26;97629.34;;;7.52;100.00
19576;BME280;41589;51.196;7.074;2022-11-20T19:45:26;97617.94;;;7.55;100.00
19576;BME280;41589;51.196;7.074;2022-11-20T19:50:30;97605.78;;;7.59;100.00
19576;BME280;41589;51.196;7.074;2022-11-20T19:55:31;97602.13;;;7.67;100.00
19576;BME280;41589;51.196;7.074;2022-11-20T20:00:31;97619.41;;;7.66;100.00
19576;BME280;41589;51.196;7.074;2022-11-20T20:05:33;97602.03;;;7.62;100.00
19576;BME280;41589;51.196;7.074;2022-11-20T20:10:33;97600.91;;;7.44;100.00
19576;BME280;41589;51.196;7.074;2022-11-20T20:15:38;97608.66;;;7.49;100.00
19576;BME280;41589;51.196;7.074;2022-11-20T20:20:40;97616.81;;;7.62;100.00
19576;BME280;41589;51.196;7.074;2022-11-20T20:25:40;97611.97;;;7.63;100.00
19576;BME280;41589;51.196;7.074;2022-11-20T20:30:41;97610.03;;;7.69;100.00
19576;BME280;41589;51.196;7.074;2022-11-20T20:35:41;97614.50;;;7.75;100.00
19576;BME280;41589;51.196;7.074;2022-11-20T20:40:46;97611.34;;;7.82;100.00
19576;BME280;41589;51.196;7.074;2022-11-20T20:45:49;97608.53;;;7.82;100.00
19576;BME280;41589;51.196;7.074;2022-11-20T20:50:57;97623.31;;;7.83;100.00
19576;BME280;41589;51.196;7.074;2022-11-20T20:56:00;97623.81;;;7.81;100.00
19576;BME280;41589;51.196;7.074;2022-11-20T21:01:06;97623.13;;;7.87;100.00
19576;BME280;41589;51.196;7.074;2022-11-20T21:06:07;97635.09;;;7.87;100.00
19576;BME280;41589;51.196;7.074;2022-11-20T21:11:12;97652.59;;;7.82;100.00
19576;BME280;41589;51.196;7.074;2022-11-20T21:16:19;97641.38;;;7.82;100.00
19576;BME280;41589;51.196;7.074;2022-11-20T21:21:31;97643.09;;;7.79;100.00
19576;BME280;41589;51.196;7.074;2022-11-20T21:26:54;97657.78;;;7.74;100.00
19576;BME280;41589;51.196;7.074;2022-11-20T21:31:56;97657.09;;;7.79;100.00
19576;BME280;41589;51.196;7.074;2022-11-20T21:36:57;97655.94;;;7.71;100.00
19576;BME280;41589;51.196;7.074;2022-11-20T21:42:00;97668.22;;;7.74;100.00
19576;BME280;41589;51.196;7.074;2022-11-20T21:47:01;97666.66;;;7.73;100.00
19576;BME280;41589;51.196;7.074;2022-11-20T21:52:04;97666.84;;;7.69;100.00
19576;BME280;41589;51.196;7.074;2022-11-20T21:57:05;97668.75;;;7.63;100.00
19576;BME280;41589;51.196;7.074;2022-11-20T22:02:05;97675.38;;;7.51;100.00
19576;BME280;41589;51.196;7.074;2022-11-20T22:07:07;97675.97;;;7.55;100.00
19576;BME280;41589;51.196;7.074;2022-11-20T22:12:07;97671.44;;;7.58;100.00
19576;BME280;41589;51.196;7.074;2022-11-20T22:17:12;97666.91;;;7.60;100.00
19576;BME280;41589;51.196;7.074;2022-11-20T22:22:13;97676.47;;;7.68;100.00
19576;BME280;41589;51.196;7.074;2022-11-20T22:27:13;97681.03;;;7.66;100.00
19576;BME280;41589;51.196;7.074;2022-11-20T22:32:14;97689.09;;;7.49;100.00
19576;BME280;41589;51.196;7.074;2022-11-20T22:37:16;97703.44;;;7.42;100.00
19576;BME280;41589;51.196;7.074;2022-11-20T22:42:20;97709.22;;;7.38;100.00
19576;BME280;41589;51.196;7.074;2022-11-20T22:47:23;97715.59;;;7.39;100.00
19576;BME280;41589;51.196;7.074;2022-11-20T22:52:28;97713.94;;;7.23;100.00
19576;BME280;41589;51.196;7.074;2022-11-20T22:57:30;97725.22;;;7.38;100.00
19576;BME280;41589;51.196;7.074;2022-11-20T23:02:30;97711.34;;;7.43;100.00
19576;BME280;41589;51.196;7.074;2022-11-20T23:07:33;97725.41;;;7.34;100.00
19576;BME280;41589;51.196;7.074;2022-11-20T23:12:34;97732.59;;;7.26;100.00
19576;BME280;41589;51.196;7.074;2022-11-20T23:17:35;97744.44;;;7.21;100.00
19576;BME280;41589;51.196;7.074;2022-11-20T23:22:38;97747.75;;;7.10;100.00
19576;BME280;41589;51.196;7.074;2022-11-20T23:27:38;97752.94;;;6.93;100.00
19576;BME280;41589;51.196;7.074;2022-11-20T23:32:41;97765.25;;;6.87;100.00
19576;BME280;41589;51.196;7.074;2022-11-20T23:37:44;97764.91;;;6.85;100.00
19576;BME280;41589;51.196;7.074;2022-11-20T23:42:44;97771.66;;;6.69;100.00
19576;BME280;41589;51.196;7.074;2022-11-20T23:48:04;97783.78;;;6.66;100.00
19576;BME280;41589;51.196;7.074;2022-11-20T23:53:05;97769.81;;;6.57;100.00
19576;BME280;41589;51.196;7.074;2022-11-20T23:58:05;97786.44;;;6.51;100.00
